Time;durP1;ratioP1;P1;durP2;ratioP2;P2;SDS_P1;SDS_P2;PMS_P1;PMS_P2;Temp;Humidity;BMP_temperature;BMP_pressure;BME280_temperature;BME280_humidity;BME280_pressure;Samples;Min_cycle;Max_cycle;Signal;HPM_P1;HPM_P2
2021/07/24 00:01:10;;;;;;;12.25;7.85;;;16.70;98.40;;;;;;5031118;28;20040;-88
2021/07/24 00:03:37;;;;;;;10.50;8.70;;;16.70;98.50;;;;;;4995466;28;20049;-87
2021/07/24 00:06:04;;;;;;;12.13;9.63;;;16.70;98.60;;;;;;5011503;28;20044;-88
2021/07/24 00:08:31;;;;;;;11.88;10.15;;;16.60;98.70;;;;;;5013832;28;20049;-89
2021/07/24 00:11:05;;;;;;;14.88;10.77;;;16.60;98.80;;;;;;5013539;28;20049;-88
2021/07/24 00:13:34;;;;;;;15.25;10.27;;;16.60;99.20;;;;;;5029617;28;20472;-88
2021/07/24 00:16:01;;;;;;;11.32;9.90;;;16.60;99.20;;;;;;5004862;28;20052;-88
2021/07/24 00:18:28;;;;;;;12.63;9.13;;;16.60;99.30;;;;;;5030322;28;20053;-88
2021/07/24 00:20:55;;;;;;;11.70;9.00;;;16.60;99.30;;;;;;5045975;28;20055;-89
2021/07/24 00:23:21;;;;;;;12.73;10.00;;;16.60;99.40;;;;;;5006241;28;20045;-88
2021/07/24 00:25:48;;;;;;;13.45;9.90;;;16.60;99.40;;;;;;5028287;28;20060;-88
2021/07/24 00:28:14;;;;;;;13.80;8.95;;;16.60;99.50;;;;;;5029542;28;20032;-88
2021/07/24 00:30:42;;;;;;;10.80;8.32;;;16.60;99.60;;;;;;4996250;28;20508;-89
2021/07/24 00:33:15;;;;;;;11.57;8.32;;;16.60;99.60;;;;;;4998254;28;20424;-88
2021/07/24 00:35:42;;;;;;;14.93;11.93;;;16.50;99.60;;;;;;5018719;28;20037;-88
2021/07/24 00:38:08;;;;;;;12.30;9.35;;;16.50;99.80;;;;;;4978946;28;20072;-88
2021/07/24 00:40:42;;;;;;;15.65;11.48;;;16.50;99.90;;;;;;4996032;28;20634;-88
2021/07/24 00:43:10;;;;;;;11.93;10.10;;;16.40;99.90;;;;;;5028736;28;20045;-88
2021/07/24 00:45:48;;;;;;;12.05;9.93;;;16.40;99.90;;;;;;5011417;28;20041;-88
2021/07/24 00:48:21;;;;;;;16.15;11.00;;;16.40;99.90;;;;;;5028257;28;20048;-88
2021/07/24 00:51:21;;;;;;;13.82;10.05;;;16.40;99.90;;;;;;5014527;28;20041;-83
2021/07/24 00:53:47;;;;;;;14.68;11.30;;;16.30;99.90;;;;;;5017691;28;20033;-82
2021/07/24 00:56:17;;;;;;;12.20;10.68;;;16.30;99.90;;;;;;5042793;28;20041;-82
2021/07/24 00:58:43;;;;;;;22.23;15.35;;;16.30;99.90;;;;;;5045069;28;20052;-82
2021/07/24 01:01:10;;;;;;;16.30;11.95;;;16.20;99.90;;;;;;5030120;28;20055;-83
2021/07/24 01:03:37;;;;;;;13.48;10.50;;;16.20;99.90;;;;;;5025466;28;20049;-82
2021/07/24 01:06:04;;;;;;;12.00;9.32;;;16.20;99.90;;;;;;5001743;28;20493;-83
2021/07/24 01:08:36;;;;;;;11.77;9.13;;;16.20;99.90;;;;;;5029443;28;20048;-82
2021/07/24 01:11:05;;;;;;;14.00;10.32;;;16.20;99.90;;;;;;5048763;28;20048;-84
2021/07/24 01:13:35;;;;;;;12.25;9.48;;;16.10;99.90;;;;;;5042247;28;20036;-80
2021/07/24 01:16:02;;;;;;;15.95;10.73;;;16.10;99.90;;;;;;5045095;28;20044;-84
2021/07/24 01:18:32;;;;;;;11.88;8.93;;;16.10;99.90;;;;;;4994637;28;21260;-84
2021/07/24 01:21:04;;;;;;;11.77;9.30;;;16.10;99.90;;;;;;4992807;28;20037;-83
2021/07/24 01:23:35;;;;;;;14.07;10.35;;;16.00;99.90;;;;;;5009237;28;20049;-84
2021/07/24 01:26:02;;;;;;;14.68;10.23;;;16.00;99.90;;;;;;5009781;28;20045;-84
2021/07/24 01:28:35;;;;;;;14.13;9.85;;;16.00;99.90;;;;;;5011588;28;20037;-83
2021/07/24 01:31:07;;;;;;;11.43;9.70;;;15.90;99.90;;;;;;5007970;28;20063;-83
2021/07/24 01:33:34;;;;;;;17.35;12.13;;;16.00;99.90;;;;;;5041146;28;20527;-84
2021/07/24 01:36:03;;;;;;;14.68;10.65;;;15.90;99.90;;;;;;5044321;28;20036;-83
2021/07/24 01:38:30;;;;;;;14.18;10.32;;;15.90;99.90;;;;;;5006906;28;20400;-84
2021/07/24 01:41:06;;;;;;;14.05;10.32;;;15.90;99.90;;;;;;5026506;28;20056;-84
2021/07/24 01:43:33;;;;;;;14.48;10.40;;;15.90;99.90;;;;;;5023614;28;20037;-84
2021/07/24 01:46:00;;;;;;;12.93;10.32;;;15.80;99.90;;;;;;5010348;28;20488;-84
2021/07/24 01:48:46;;;;;;;11.07;8.75;;;15.80;99.90;;;;;;5042968;28;20393;-83
2021/07/24 01:54:03;;;;;;;15.00;11.00;;;15.80;99.90;;;;;;5040853;28;20033;-80
2021/07/24 01:56:34;;;;;;;15.73;12.48;;;15.70;99.90;;;;;;4992528;28;20052;-80
2021/07/24 01:59:00;;;;;;;15.18;11.93;;;15.70;99.90;;;;;;5043025;28;20048;-80
2021/07/24 02:01:29;;;;;;;14.95;11.20;;;15.70;99.90;;;;;;5021604;28;20064;-80
2021/07/24 02:04:10;;;;;;;17.27;11.55;;;15.70;99.90;;;;;;5023167;28;20513;-80
2021/07/24 02:06:44;;;;;;;18.52;13.70;;;15.70;99.90;;;;;;5041627;28;20503;-80
2021/07/24 02:09:15;;;;;;;19.75;13.18;;;15.70;99.90;;;;;;4998346;28;20058;-80
2021/07/24 02:11:45;;;;;;;16.75;12.23;;;15.70;99.90;;;;;;5012366;28;20524;-80
2021/07/24 02:14:16;;;;;;;13.27;11.10;;;15.60;99.90;;;;;;5008724;28;20072;-79
2021/07/24 02:16:44;;;;;;;18.30;12.65;;;15.60;99.90;;;;;;5041215;28;20488;-79
2021/07/24 02:19:13;;;;;;;17.60;12.55;;;15.60;99.90;;;;;;5004257;28;20072;-79
2021/07/24 02:21:44;;;;;;;14.80;10.67;;;15.60;99.90;;;;;;5009157;28;20045;-79
2021/07/24 02:24:13;;;;;;;12.60;10.77;;;15.50;99.90;;;;;;5008237;28;20073;-79
2021/07/24 02:26:43;;;;;;;15.07;10.82;;;15.50;99.90;;;;;;5007409;28;20041;-79
2021/07/24 02:29:11;;;;;;;17.92;13.38;;;15.50;99.90;;;;;;5024925;28;20496;-80
2021/07/24 02:31:37;;;;;;;14.50;11.18;;;15.50;99.90;;;;;;4997557;28;20056;-80
2021/07/24 02:34:07;;;;;;;18.33;13.18;;;15.50;99.90;;;;;;5008467;28;20045;-80
2021/07/24 02:36:34;;;;;;;18.35;13.18;;;15.50;99.90;;;;;;5006898;28;20065;-80
2021/07/24 02:39:00;;;;;;;14.73;10.75;;;15.50;99.90;;;;;;5014272;28;20049;-80
2021/07/24 02:41:27;;;;;;;14.35;11.05;;;15.50;99.90;;;;;;5026073;28;20057;-79
2021/07/24 02:43:55;;;;;;;13.10;10.18;;;15.50;99.90;;;;;;5042758;28;20064;-79
2021/07/24 02:46:22;;;;;;;12.77;9.68;;;15.40;99.90;;;;;;5046308;28;20037;-80
2021/07/24 02:48:51;;;;;;;13.75;10.77;;;15.40;99.90;;;;;;5014367;28;20402;-80
2021/07/24 02:51:25;;;;;;;14.15;9.77;;;15.40;99.90;;;;;;5015373;28;20048;-79
2021/07/24 02:53:53;;;;;;;17.13;12.10;;;15.40;99.90;;;;;;5042474;28;20053;-80
2021/07/24 02:56:20;;;;;;;14.90;11.77;;;15.40;99.90;;;;;;5002230;28;20041;-80
2021/07/24 02:58:47;;;;;;;15.77;11.32;;;15.40;99.90;;;;;;5045442;28;20041;-80
2021/07/24 03:01:13;;;;;;;15.95;12.13;;;15.40;99.90;;;;;;5047519;28;20040;-80
2021/07/24 03:03:40;;;;;;;15.88;10.40;;;15.30;99.90;;;;;;5010551;28;20055;-79
2021/07/24 03:06:07;;;;;;;16.40;11.18;;;15.30;99.90;;;;;;4995176;28;20526;-80
2021/07/24 03:08:33;;;;;;;15.13;11.07;;;15.30;99.90;;;;;;5023884;28;20036;-80
2021/07/24 03:11:00;;;;;;;17.10;11.68;;;15.30;99.90;;;;;;4993981;28;20068;-80
2021/07/24 03:13:26;;;;;;;15.40;11.15;;;15.20;99.90;;;;;;5027344;28;20040;-80
2021/07/24 03:15:52;;;;;;;15.82;10.95;;;15.20;99.90;;;;;;5045444;28;20053;-80
2021/07/24 03:18:19;;;;;;;15.30;11.23;;;15.20;99.90;;;;;;5028279;28;20060;-80
2021/07/24 03:20:45;;;;;;;15.45;11.32;;;15.20;99.90;;;;;;5047128;28;20060;-80
2021/07/24 03:23:12;;;;;;;13.15;9.82;;;15.20;99.90;;;;;;5027021;28;20369;-81
2021/07/24 03:25:42;;;;;;;14.10;10.05;;;15.20;99.90;;;;;;5028935;28;20037;-80
2021/07/24 03:28:09;;;;;;;14.80;10.52;;;15.20;99.90;;;;;;5012052;28;20052;-85
2021/07/24 03:30:38;;;;;;;13.18;10.38;;;15.10;99.90;;;;;;5022799;28;20041;-85
2021/07/24 03:33:05;;;;;;;16.13;12.25;;;15.10;99.90;;;;;;5043697;28;20037;-84
2021/07/24 03:35:31;;;;;;;13.85;10.73;;;15.10;99.90;;;;;;5028330;28;20056;-84
2021/07/24 03:38:02;;;;;;;12.60;10.65;;;15.10;99.90;;;;;;5045055;28;20053;-85
2021/07/24 03:40:29;;;;;;;15.57;10.95;;;15.00;99.90;;;;;;5012142;28;20049;-84
2021/07/24 03:42:56;;;;;;;14.70;11.25;;;15.00;99.90;;;;;;5027236;28;20092;-84
2021/07/24 03:45:22;;;;;;;15.23;12.15;;;15.00;99.90;;;;;;5010586;28;20033;-84
2021/07/24 03:47:48;;;;;;;17.05;11.35;;;15.00;99.90;;;;;;5011909;28;20056;-83
2021/07/24 03:50:15;;;;;;;17.98;12.63;;;15.00;99.90;;;;;;5027546;28;20033;-84
2021/07/24 03:52:41;;;;;;;13.05;10.50;;;15.00;99.90;;;;;;5025636;28;20041;-84
2021/07/24 03:55:08;;;;;;;21.15;12.02;;;15.00;99.90;;;;;;5010538;28;20037;-84
2021/07/24 03:57:35;;;;;;;16.80;11.80;;;15.00;99.90;;;;;;5012324;28;20594;-83
2021/07/24 04:00:03;;;;;;;14.25;11.10;;;15.00;99.90;;;;;;4994761;28;20056;-84
2021/07/24 04:02:33;;;;;;;15.63;11.25;;;15.00;99.90;;;;;;4994408;28;20049;-84
2021/07/24 04:05:01;;;;;;;14.30;10.20;;;15.00;99.90;;;;;;5011440;28;20045;-84
2021/07/24 04:07:28;;;;;;;17.77;11.98;;;15.10;99.90;;;;;;5024847;28;20045;-84
2021/07/24 04:09:55;;;;;;;13.75;10.65;;;15.10;99.90;;;;;;5011532;28;20037;-84
2021/07/24 04:12:21;;;;;;;16.83;12.13;;;15.10;99.90;;;;;;4999343;28;20480;-83
2021/07/24 04:14:48;;;;;;;16.52;11.75;;;15.20;99.90;;;;;;5027489;28;20044;-84
2021/07/24 04:17:14;;;;;;;16.55;11.88;;;15.20;99.90;;;;;;4993227;28;20048;-83
2021/07/24 04:19:41;;;;;;;15.63;11.82;;;15.30;99.90;;;;;;5017601;28;20033;-83
2021/07/24 04:22:08;;;;;;;14.73;10.75;;;15.40;99.90;;;;;;4993759;28;20049;-84
2021/07/24 04:24:34;;;;;;;14.25;10.38;;;15.40;99.90;;;;;;5009946;28;20053;-84
2021/07/24 04:27:00;;;;;;;16.13;11.75;;;15.50;99.90;;;;;;5009295;28;20040;-84
2021/07/24 04:29:28;;;;;;;18.42;11.07;;;15.50;99.90;;;;;;5026974;28;20037;-83
2021/07/24 04:31:55;;;;;;;16.33;11.65;;;15.60;99.90;;;;;;4992845;28;20053;-84
2021/07/24 04:34:22;;;;;;;15.18;10.55;;;15.70;99.90;;;;;;5044606;28;20508;-84
2021/07/24 04:36:48;;;;;;;14.60;10.38;;;15.70;99.90;;;;;;5027316;28;20049;-84
2021/07/24 04:39:14;;;;;;;12.40;9.40;;;15.80;99.90;;;;;;5010845;28;20332;-84
2021/07/24 04:41:42;;;;;;;17.13;11.43;;;15.90;99.90;;;;;;4994079;28;20040;-84
2021/07/24 04:44:09;;;;;;;18.10;10.63;;;16.00;99.90;;;;;;5008864;28;20567;-80
2021/07/24 04:46:35;;;;;;;15.25;10.68;;;16.00;99.90;;;;;;5043822;28;20032;-80
2021/07/24 04:49:02;;;;;;;11.75;9.40;;;16.10;99.90;;;;;;5026567;28;20049;-80
2021/07/24 04:51:29;;;;;;;13.32;9.93;;;16.10;99.90;;;;;;5025831;28;20045;-80
2021/07/24 04:53:57;;;;;;;14.25;9.85;;;16.20;99.90;;;;;;5040232;28;20045;-81
2021/07/24 04:56:24;;;;;;;14.70;10.07;;;16.30;99.90;;;;;;5019735;28;20036;-80
2021/07/24 04:58:50;;;;;;;14.25;10.02;;;16.30;99.90;;;;;;4996936;28;20530;-80
2021/07/24 05:01:19;;;;;;;13.93;11.18;;;16.40;99.90;;;;;;5022284;28;20518;-81
2021/07/24 05:03:48;;;;;;;16.15;11.45;;;16.40;99.90;;;;;;5043521;28;20032;-81
2021/07/24 05:06:15;;;;;;;13.00;9.15;;;16.40;99.90;;;;;;5025141;28;20516;-80
2021/07/24 05:08:41;;;;;;;15.65;10.50;;;16.40;99.90;;;;;;5022698;28;20041;-80
2021/07/24 05:11:08;;;;;;;16.20;11.73;;;16.50;99.90;;;;;;4995318;28;20045;-84
2021/07/24 05:13:34;;;;;;;11.57;8.75;;;16.60;99.90;;;;;;5010051;28;20049;-85
2021/07/24 05:16:00;;;;;;;13.32;9.95;;;16.70;99.90;;;;;;4992843;28;20049;-84
2021/07/24 05:18:27;;;;;;;13.80;9.93;;;16.70;99.90;;;;;;5028741;28;20060;-85
2021/07/24 05:20:53;;;;;;;15.13;10.77;;;16.70;99.90;;;;;;5028261;28;20045;-84
2021/07/24 05:23:20;;;;;;;13.13;11.02;;;16.70;99.90;;;;;;5025834;28;20036;-84
2021/07/24 05:25:46;;;;;;;13.18;10.05;;;16.80;99.90;;;;;;4994160;28;20036;-83
2021/07/24 05:28:12;;;;;;;10.25;8.00;;;16.80;99.90;;;;;;5027118;28;20490;-83
2021/07/24 05:30:39;;;;;;;10.38;8.32;;;16.80;99.90;;;;;;5025473;28;20048;-83
2021/07/24 05:33:08;;;;;;;10.68;8.57;;;16.90;99.90;;;;;;5043296;28;20044;-84
2021/07/24 05:35:34;;;;;;;11.55;8.98;;;16.90;99.90;;;;;;5009367;28;20083;-83
2021/07/24 05:38:01;;;;;;;12.75;9.38;;;17.00;99.90;;;;;;5010487;28;20076;-83
2021/07/24 05:40:27;;;;;;;12.23;8.80;;;17.10;99.90;;;;;;4992835;28;20492;-83
2021/07/24 05:42:59;;;;;;;12.27;8.88;;;17.10;99.90;;;;;;5006969;28;20048;-83
2021/07/24 05:45:26;;;;;;;10.23;8.00;;;17.20;99.90;;;;;;5047897;28;20353;-84
2021/07/24 05:47:52;;;;;;;10.52;7.82;;;17.40;99.90;;;;;;5009948;28;20063;-83
2021/07/24 05:50:19;;;;;;;8.00;6.65;;;17.50;99.90;;;;;;5004830;28;20436;-83
2021/07/24 05:52:45;;;;;;;12.82;8.90;;;17.70;99.90;;;;;;4989582;28;20041;-83
2021/07/24 05:55:11;;;;;;;9.32;7.90;;;17.90;99.90;;;;;;5009652;28;20060;-83
2021/07/24 05:57:38;;;;;;;10.93;7.85;;;18.00;99.90;;;;;;5010019;28;20044;-84
2021/07/24 06:00:05;;;;;;;12.77;9.27;;;18.20;99.90;;;;;;5026870;28;20527;-83
2021/07/24 06:02:42;;;;;;;13.30;8.65;;;18.30;99.90;;;;;;5043020;28;20064;-81
2021/07/24 06:05:09;;;;;;;10.55;7.75;;;18.40;99.90;;;;;;4992681;28;20076;-80
2021/07/24 06:07:35;;;;;;;12.73;9.55;;;18.50;99.90;;;;;;5043289;28;20044;-80
2021/07/24 06:10:02;;;;;;;12.98;9.88;;;18.70;99.90;;;;;;5026612;28;20400;-80
2021/07/24 06:12:28;;;;;;;10.90;8.65;;;18.80;99.80;;;;;;5024969;28;20052;-80
2021/07/24 06:14:55;;;;;;;10.80;8.88;;;18.90;99.80;;;;;;5008351;28;20049;-80
2021/07/24 06:17:21;;;;;;;10.23;8.10;;;19.00;99.60;;;;;;5026570;28;20048;-80
2021/07/24 06:19:48;;;;;;;9.57;7.72;;;19.10;99.10;;;;;;5046961;28;20041;-80
2021/07/24 06:22:14;;;;;;;11.07;8.77;;;19.30;98.80;;;;;;5011313;28;20064;-80
2021/07/24 06:24:40;;;;;;;11.20;8.82;;;19.40;98.40;;;;;;5046550;28;20048;-80
2021/07/24 06:27:07;;;;;;;10.63;7.72;;;19.50;98.30;;;;;;5029939;28;20033;-80
2021/07/24 06:29:33;;;;;;;12.75;9.10;;;19.50;98.00;;;;;;5013145;28;20041;-80
2021/07/24 06:32:00;;;;;;;10.95;8.35;;;19.70;97.80;;;;;;4996000;28;20052;-81
2021/07/24 06:34:26;;;;;;;10.48;8.55;;;19.80;97.60;;;;;;5046211;28;20032;-80
2021/07/24 06:36:52;;;;;;;9.73;7.90;;;19.80;97.40;;;;;;5028583;28;20518;-81
2021/07/24 06:39:19;;;;;;;9.27;8.27;;;19.90;97.20;;;;;;4997830;28;20287;-80
2021/07/24 06:41:45;;;;;;;8.77;6.85;;;20.00;97.10;;;;;;5045005;28;20056;-83
2021/07/24 06:44:18;;;;;;;9.48;8.15;;;20.10;97.20;;;;;;4996204;28;20053;-80
2021/07/24 06:46:44;;;;;;;;;;;20.30;96.80;;;;;;5013878;28;20404;-81
2021/07/24 06:49:11;;;;;;;10.32;7.90;;;20.30;96.30;;;;;;5012870;28;19927;-80
2021/07/24 06:51:38;;;;;;;9.50;8.18;;;20.30;96.30;;;;;;5046322;28;20045;-81
2021/07/24 06:54:04;;;;;;;10.30;7.88;;;20.30;96.20;;;;;;5012049;28;20045;-81
2021/07/24 06:56:34;;;;;;;7.53;6.22;;;20.30;96.20;;;;;;5012475;28;20522;-80
2021/07/24 06:59:00;;;;;;;10.40;8.27;;;20.30;96.30;;;;;;5029991;28;20049;-83
2021/07/24 07:01:26;;;;;;;12.52;9.13;;;20.30;96.30;;;;;;5029742;28;20045;-83
2021/07/24 07:03:53;;;;;;;12.15;9.75;;;20.30;96.30;;;;;;5027986;28;20041;-84
2021/07/24 07:06:19;;;;;;;9.75;7.95;;;20.20;96.10;;;;;;5045058;28;20067;-84
2021/07/24 07:08:46;;;;;;;10.27;7.97;;;20.20;96.20;;;;;;5028659;28;20056;-84
2021/07/24 07:11:13;;;;;;;10.57;7.13;;;20.10;96.30;;;;;;4996607;28;20052;-83
2021/07/24 07:13:39;;;;;;;13.82;8.52;;;20.10;96.30;;;;;;5010683;28;20756;-83
2021/07/24 07:16:07;;;;;;;8.43;7.53;;;20.10;96.40;;;;;;5011506;28;20053;-83
2021/07/24 07:18:35;;;;;;;7.53;6.68;;;20.10;96.50;;;;;;5028764;28;20040;-83
2021/07/24 07:21:02;;;;;;;8.15;6.90;;;20.10;96.50;;;;;;5028122;28;20119;-83
2021/07/24 07:23:29;;;;;;;10.68;7.97;;;20.20;96.50;;;;;;5043626;28;20045;-83
2021/07/24 07:25:55;;;;;;;7.97;6.57;;;20.20;96.60;;;;;;4995920;28;20064;-83
2021/07/24 07:28:21;;;;;;;9.30;6.75;;;20.40;96.60;;;;;;5022899;28;20508;-83
2021/07/24 07:30:48;;;;;;;12.57;8.27;;;20.50;96.50;;;;;;5026663;28;20044;-83
2021/07/24 07:33:15;;;;;;;8.30;7.15;;;20.50;96.20;;;;;;5027123;28;20053;-82
2021/07/24 07:35:42;;;;;;;7.13;6.07;;;20.60;96.10;;;;;;5046598;28;20029;-83
2021/07/24 07:38:08;;;;;;;8.40;7.45;;;20.60;96.20;;;;;;5011971;28;20524;-84
2021/07/24 07:40:39;;;;;;;9.32;8.32;;;20.70;96.10;;;;;;5045455;28;20396;-83
2021/07/24 07:43:08;;;;;;;9.65;7.85;;;20.80;95.80;;;;;;5026540;28;20049;-84
2021/07/24 07:45:40;;;;;;;7.65;6.85;;;20.90;95.50;;;;;;5022275;28;20518;-84
2021/07/24 07:48:07;;;;;;;10.07;6.97;;;20.90;95.50;;;;;;5013407;28;20041;-83
2021/07/24 07:50:33;;;;;;;8.25;7.38;;;21.00;95.40;;;;;;4979657;28;20037;-83
2021/07/24 07:53:00;;;;;;;7.40;6.22;;;21.10;95.30;;;;;;4994131;28;20508;-84
2021/07/24 07:55:27;;;;;;;9.15;6.78;;;21.20;95.40;;;;;;5027077;28;20041;-83
2021/07/24 07:57:53;;;;;;;8.60;7.53;;;21.40;95.30;;;;;;5044739;28;20052;-84
2021/07/24 08:00:21;;;;;;;8.88;7.97;;;21.50;95.00;;;;;;5010034;28;20076;-83
2021/07/24 08:02:52;;;;;;;10.27;6.95;;;21.40;94.50;;;;;;5043702;28;20051;-84
2021/07/24 08:05:19;;;;;;;8.75;7.28;;;21.40;94.60;;;;;;5027508;28;20036;-83
2021/07/24 08:07:45;;;;;;;8.35;7.03;;;21.50;94.50;;;;;;5027130;28;20056;-83
2021/07/24 08:10:12;;;;;;;9.15;6.35;;;21.60;94.50;;;;;;5028225;28;20048;-83
2021/07/24 08:12:38;;;;;;;8.00;6.50;;;21.80;94.40;;;;;;5003642;28;20554;-83
2021/07/24 08:15:05;;;;;;;10.20;6.18;;;22.10;94.30;;;;;;5010312;28;20122;-84
2021/07/24 08:17:31;;;;;;;7.07;6.35;;;22.30;94.10;;;;;;4977782;28;20053;-84
2021/07/24 08:19:58;;;;;;;9.05;7.43;;;22.50;93.70;;;;;;5026412;28;20485;-85
2021/07/24 08:22:24;;;;;;;8.75;7.82;;;22.70;93.30;;;;;;5026578;28;20045;-84
2021/07/24 08:24:51;;;;;;;8.30;6.07;;;22.80;92.50;;;;;;5010925;28;20057;-83
2021/07/24 08:27:17;;;;;;;7.03;6.32;;;23.00;92.60;;;;;;5019016;28;20404;-83
2021/07/24 08:29:43;;;;;;;7.75;6.35;;;23.20;92.60;;;;;;5020620;28;20049;-84
2021/07/24 08:32:10;;;;;;;7.68;6.30;;;23.30;92.30;;;;;;5042173;28;20099;-83
2021/07/24 08:34:36;;;;;;;8.80;7.57;;;23.40;91.80;;;;;;5025868;28;20041;-81
2021/07/24 08:37:03;;;;;;;8.10;7.30;;;23.60;91.60;;;;;;5044014;28;20053;-80
2021/07/24 08:39:30;;;;;;;8.23;7.32;;;23.60;91.30;;;;;;5044520;28;20032;-80
2021/07/24 08:41:56;;;;;;;9.23;7.10;;;23.70;91.10;;;;;;5009471;28;20049;-80
2021/07/24 08:44:23;;;;;;;7.10;6.40;;;23.90;91.00;;;;;;5044257;28;20049;-80
2021/07/24 08:46:49;;;;;;;7.47;6.28;;;24.00;90.50;;;;;;5044398;28;20033;-81
2021/07/24 08:49:16;;;;;;;8.55;5.63;;;24.30;90.50;;;;;;5044176;28;20447;-81
2021/07/24 08:51:42;;;;;;;7.32;6.20;;;24.50;90.20;;;;;;5026497;28;20044;-80
2021/07/24 08:54:09;;;;;;;7.10;6.35;;;24.60;90.00;;;;;;5026105;28;20056;-81
2021/07/24 08:56:45;;;;;;;8.82;5.80;;;24.70;89.60;;;;;;5044982;28;20051;-81
2021/07/24 08:59:16;;;;;;;6.35;5.75;;;24.90;89.80;;;;;;5027654;28;20060;-81
2021/07/24 09:01:51;;;;;;;8.07;6.15;;;25.10;89.10;;;;;;5041649;28;20389;-81
2021/07/24 09:04:19;;;;;;;7.13;6.18;;;25.20;89.00;;;;;;5042741;28;20884;-81
2021/07/24 09:06:49;;;;;;;10.57;7.30;;;25.40;88.20;;;;;;5026622;28;20045;-82
2021/07/24 09:09:17;;;;;;;10.55;6.75;;;25.40;87.20;;;;;;5027037;28;20041;-82
2021/07/24 09:11:44;;;;;;;7.78;5.55;;;25.40;87.00;;;;;;5029947;28;20425;-81
2021/07/24 09:14:10;;;;;;;9.32;6.03;;;25.40;87.00;;;;;;4995657;28;20045;-81
2021/07/24 09:16:38;;;;;;;8.10;6.60;;;25.40;87.20;;;;;;5044803;28;20192;-82
2021/07/24 09:19:05;;;;;;;9.68;6.35;;;25.60;86.70;;;;;;5025840;28;20045;-82
2021/07/24 09:21:32;;;;;;;6.60;5.88;;;25.90;85.70;;;;;;5009143;28;20058;-81
2021/07/24 09:24:19;;;;;;;8.10;5.50;;;26.00;85.20;;;;;;4978519;28;20053;-82
2021/07/24 09:26:46;;;;;;;9.13;7.28;;;26.20;85.40;;;;;;5026883;28;20511;-82
2021/07/24 09:29:14;;;;;;;7.38;6.68;;;26.40;84.40;;;;;;5026240;28;20044;-82
2021/07/24 09:31:45;;;;;;;8.02;6.10;;;26.50;83.10;;;;;;5043026;28;20037;-82
2021/07/24 09:34:13;;;;;;;6.88;6.20;;;26.60;83.00;;;;;;4992743;28;20068;-81
2021/07/24 09:36:40;;;;;;;6.50;5.78;;;26.70;82.80;;;;;;5042459;28;20044;-81
2021/07/24 09:39:13;;;;;;;6.25;5.53;;;26.60;83.40;;;;;;5042023;28;20041;-81
2021/07/24 09:41:43;;;;;;;6.15;5.55;;;26.60;83.60;;;;;;5042308;28;20055;-81
2021/07/24 09:44:11;;;;;;;7.50;6.22;;;26.60;83.60;;;;;;5024549;28;20057;-81
2021/07/24 09:46:37;;;;;;;7.47;6.68;;;26.50;83.10;;;;;;5026431;28;20927;-81
2021/07/24 09:49:14;;;;;;;5.88;5.30;;;26.60;82.40;;;;;;5043069;28;20037;-81
2021/07/24 09:51:43;;;;;;;6.43;5.70;;;26.50;82.50;;;;;;5009157;28;20059;-81
2021/07/24 09:54:27;;;;;;;7.93;5.93;;;26.50;83.00;;;;;;5038536;28;20041;-81
2021/07/24 09:56:55;;;;;;;6.53;5.93;;;26.50;83.00;;;;;;5042363;28;20523;-81
2021/07/24 09:59:33;;;;;;;6.97;5.93;;;26.40;83.00;;;;;;5043337;28;20044;-85
2021/07/24 10:02:08;;;;;;;6.57;5.97;;;26.50;82.50;;;;;;5039639;28;20412;-86
2021/07/24 10:04:37;;;;;;;9.65;7.97;;;26.40;82.40;;;;;;5040841;28;20404;-85
2021/07/24 10:07:05;;;;;;;8.98;6.28;;;26.30;82.10;;;;;;5026516;28;20495;-87
2021/07/24 10:09:33;;;;;;;22.02;6.60;;;26.20;82.60;;;;;;5007083;28;20045;-78
2021/07/24 10:12:08;;;;;;;26.67;7.63;;;26.20;82.90;;;;;;5040598;28;20056;-80
2021/07/24 10:14:35;;;;;;;14.48;6.80;;;26.20;83.10;;;;;;5046857;28;20403;-80
2021/07/24 10:17:02;;;;;;;6.95;5.82;;;26.30;82.90;;;;;;5042388;28;20043;-80
2021/07/24 10:19:29;;;;;;;7.93;6.25;;;26.30;83.00;;;;;;5026166;28;20052;-81
2021/07/24 10:21:57;;;;;;;8.13;6.78;;;26.30;83.20;;;;;;5024219;28;20049;-81
2021/07/24 10:24:24;;;;;;;11.10;8.98;;;26.30;83.50;;;;;;5043632;28;20052;-81
2021/07/24 10:27:11;;;;;;;11.02;9.93;;;26.30;83.90;;;;;;5006386;28;20041;-81
2021/07/24 10:29:51;;;;;;;10.45;9.30;;;26.30;83.70;;;;;;5041511;28;20492;-81
2021/07/24 10:32:25;;;;;;;9.45;8.55;;;26.20;83.40;;;;;;5024444;28;20049;-81
2021/07/24 10:34:53;;;;;;;8.93;8.13;;;26.10;83.20;;;;;;5042237;28;20041;-81
2021/07/24 10:37:38;;;;;;;9.30;6.95;;;26.00;83.40;;;;;;5041865;28;20052;-82
2021/07/24 10:40:30;;;;;;;8.65;7.50;;;25.90;83.90;;;;;;5042644;28;20488;-82
2021/07/24 10:42:57;;;;;;;6.97;6.28;;;25.90;84.10;;;;;;5023190;28;20041;-81
2021/07/24 10:45:33;;;;;;;9.40;7.50;;;26.00;84.60;;;;;;5031339;28;20060;-81
2021/07/24 10:48:14;;;;;;;8.13;7.28;;;26.10;84.50;;;;;;5046128;28;20489;-83
2021/07/24 10:51:01;;;;;;;10.73;7.88;;;26.10;84.40;;;;;;5041674;28;20033;-81
2021/07/24 10:53:28;;;;;;;7.22;6.53;;;26.10;84.30;;;;;;5018444;28;20037;-82
2021/07/24 10:55:57;;;;;;;7.53;6.82;;;26.20;84.70;;;;;;5025737;28;20507;-82
2021/07/24 10:58:28;;;;;;;9.80;8.10;;;26.20;85.00;;;;;;5000432;28;20049;-81
2021/07/24 11:00:59;;;;;;;9.30;8.38;;;26.30;84.60;;;;;;5043968;28;20032;-80
2021/07/24 11:03:33;;;;;;;9.50;8.50;;;26.30;84.30;;;;;;5008164;28;20067;-81
2021/07/24 11:06:01;;;;;;;9.75;8.73;;;26.30;84.40;;;;;;5045884;28;20033;-81
2021/07/24 11:09:05;;;;;;;8.98;8.07;;;26.30;84.00;;;;;;5012863;28;20403;-81
2021/07/24 11:11:43;;;;;;;11.35;8.75;;;26.20;83.70;;;;;;5046685;28;20033;-84
2021/07/24 11:14:34;;;;;;;8.32;7.50;;;26.10;83.90;;;;;;5010693;28;20060;-81
2021/07/24 11:17:07;;;;;;;10.87;8.70;;;26.10;84.00;;;;;;5045979;28;20043;-81
2021/07/24 11:19:38;;;;;;;9.93;8.90;;;26.00;83.90;;;;;;5028696;28;20292;-81
2021/07/24 11:22:18;;;;;;;9.43;8.53;;;25.80;83.50;;;;;;5027872;28;20503;-82
2021/07/24 11:25:05;;;;;;;9.77;8.40;;;25.80;83.90;;;;;;5044484;28;20674;-81
2021/07/24 11:27:33;;;;;;;12.40;8.35;;;25.70;84.20;;;;;;5046831;28;20415;-81
2021/07/24 11:30:02;;;;;;;10.63;9.32;;;25.60;84.40;;;;;;5012128;28;20048;-81
2021/07/24 11:32:34;;;;;;;13.70;8.57;;;25.60;84.90;;;;;;5042190;28;20033;-81
2021/07/24 11:35:06;;;;;;;9.50;8.57;;;25.60;85.30;;;;;;5044940;28;20029;-82
2021/07/24 11:37:51;;;;;;;9.43;7.80;;;25.70;85.50;;;;;;5045991;28;20037;-82
2021/07/24 11:40:21;;;;;;;13.10;9.35;;;25.70;85.80;;;;;;5044730;28;20033;-81
2021/07/24 11:43:01;;;;;;;12.30;8.95;;;25.70;85.70;;;;;;5026986;28;20055;-81
2021/07/24 11:45:29;;;;;;;9.10;8.20;;;25.60;85.20;;;;;;5027907;28;20535;-82
2021/07/24 11:48:25;;;;;;;9.20;8.30;;;25.70;85.70;;;;;;5045017;28;20491;-82
2021/07/24 11:51:04;;;;;;;10.80;8.93;;;25.70;85.80;;;;;;5035171;28;20048;-84
2021/07/24 11:53:31;;;;;;;9.63;8.63;;;25.70;85.80;;;;;;5042717;28;20028;-83
2021/07/24 11:55:58;;;;;;;8.98;8.07;;;25.80;85.50;;;;;;5028052;28;20033;-83
2021/07/24 11:58:25;;;;;;;10.75;8.65;;;25.80;85.40;;;;;;5028118;28;20049;-83
2021/07/24 12:00:56;;;;;;;8.57;7.68;;;25.70;85.50;;;;;;5046451;28;20044;-83
2021/07/24 12:03:25;;;;;;;8.47;7.63;;;25.70;85.80;;;;;;5026396;28;20039;-83
2021/07/24 12:05:53;;;;;;;9.10;7.93;;;25.60;86.00;;;;;;5025293;28;20057;-83
2021/07/24 12:08:26;;;;;;;9.30;8.30;;;25.70;86.40;;;;;;5027803;28;20044;-81
2021/07/24 12:10:53;;;;;;;10.70;8.85;;;25.70;86.60;;;;;;5041953;28;20056;-81
2021/07/24 12:13:21;;;;;;;10.88;8.45;;;25.60;86.80;;;;;;5026106;28;20049;-80
2021/07/24 12:16:01;;;;;;;9.40;8.43;;;25.60;87.10;;;;;;5027562;28;20052;-82
2021/07/24 12:18:34;;;;;;;16.85;9.18;;;25.50;87.20;;;;;;5026060;28;20049;-80
2021/07/24 12:21:12;;;;;;;10.52;8.18;;;25.50;87.40;;;;;;5043304;28;20634;-81
2021/07/24 12:23:43;;;;;;;10.52;9.25;;;25.40;87.80;;;;;;5025398;28;20053;-83
2021/07/24 12:26:18;;;;;;;10.63;8.25;;;25.30;88.00;;;;;;5010456;28;20045;-81
2021/07/24 12:28:45;;;;;;;8.65;7.75;;;25.30;88.30;;;;;;5010895;28;20037;-84
2021/07/24 12:31:22;;;;;;;12.15;9.45;;;25.30;88.60;;;;;;5011954;28;20048;-84
2021/07/24 12:33:51;;;;;;;11.48;7.85;;;25.30;88.90;;;;;;5025289;28;20064;-82
2021/07/24 12:36:19;;;;;;;10.15;9.00;;;25.30;89.10;;;;;;5009550;28;20492;-82
2021/07/24 12:38:46;;;;;;;10.93;7.75;;;25.30;89.00;;;;;;5044520;28;20053;-83
2021/07/24 12:41:12;;;;;;;9.27;8.05;;;25.30;88.90;;;;;;5029043;28;20419;-82
2021/07/24 12:43:43;;;;;;;8.73;7.82;;;25.40;89.10;;;;;;5043162;28;20045;-83
2021/07/24 12:46:14;;;;;;;9.43;8.43;;;25.50;89.40;;;;;;4997464;28;20053;-83
2021/07/24 12:48:46;;;;;;;14.20;10.40;;;25.60;89.60;;;;;;5028228;28;20492;-82
2021/07/24 12:51:14;;;;;;;11.85;9.45;;;25.60;88.60;;;;;;5033439;28;20055;-82